Time;durP1;ratioP1;P1;durP2;ratioP2;P2;SDS_P1;SDS_P2;PMS_P1;PMS_P2;Temp;Humidity;BMP_temperature;BMP_pressure;BME280_temperature;BME280_humidity;BME280_pressure;Samples;Min_cycle;Max_cycle;Signal;HPM_P1;HPM_P2
2022/06/10 00:01:09;;;;;;;7.57;1.42;;;19.40;99.90;;;;;;5053361;28;20232;-38
2022/06/10 00:03:37;;;;;;;5.07;1.70;;;19.40;99.90;;;;;;5063020;28;20632;-38
2022/06/10 00:06:11;;;;;;;6.47;1.40;;;19.40;99.90;;;;;;5055060;28;20995;-37
2022/06/10 00:08:41;;;;;;;6.13;1.48;;;19.40;99.90;;;;;;5038662;28;20193;-38
2022/06/10 00:11:10;;;;;;;5.97;1.65;;;19.40;99.90;;;;;;5029639;28;20660;-38
2022/06/10 00:13:47;;;;;;;5.00;1.40;;;19.40;99.90;;;;;;5041457;28;20201;-37
2022/06/10 00:16:17;;;;;;;5.15;1.80;;;19.40;99.90;;;;;;5038425;28;20200;-37
2022/06/10 00:18:51;;;;;;;7.45;1.27;;;19.40;99.90;;;;;;5040068;28;21432;-37
2022/06/10 00:21:22;;;;;;;3.95;1.38;;;19.40;99.90;;;;;;5051570;28;20545;-38
2022/06/10 00:23:52;;;;;;;8.93;1.73;;;19.40;99.90;;;;;;5064295;28;20233;-37
2022/06/10 00:26:20;;;;;;;8.68;1.45;;;19.40;99.90;;;;;;5050485;28;20199;-37
2022/06/10 00:28:48;;;;;;;5.13;1.58;;;19.40;99.90;;;;;;5043494;28;20207;-37
2022/06/10 00:31:18;;;;;;;4.90;1.60;;;19.40;99.90;;;;;;5052830;28;20197;-37
2022/06/10 00:33:53;;;;;;;5.60;1.77;;;19.40;99.90;;;;;;5048392;28;20250;-37
2022/06/10 00:36:24;;;;;;;5.38;1.50;;;19.40;99.90;;;;;;5038149;28;20275;-36
2022/06/10 00:38:51;;;;;;;4.25;1.42;;;19.40;99.90;;;;;;5043760;28;20291;-37
2022/06/10 00:41:19;;;;;;;5.70;1.63;;;19.40;99.90;;;;;;5048445;28;20307;-37
2022/06/10 00:43:49;;;;;;;4.95;1.52;;;19.40;99.90;;;;;;5055140;28;20646;-37
2022/06/10 00:46:48;;;;;;;6.75;1.75;;;19.40;99.90;;;;;;5046676;28;20238;-37
2022/06/10 00:49:16;;;;;;;5.43;1.83;;;19.40;99.90;;;;;;5036398;28;20270;-36
2022/06/10 00:51:55;;;;;;;5.93;1.80;;;19.40;99.90;;;;;;5033370;28;20254;-36
2022/06/10 00:54:25;;;;;;;4.57;1.70;;;19.40;99.90;;;;;;5042732;28;20258;-36
2022/06/10 00:56:56;;;;;;;7.40;1.52;;;19.30;99.90;;;;;;5056220;28;20201;-37
2022/06/10 00:59:29;;;;;;;4.80;1.55;;;19.30;99.90;;;;;;5042418;28;20235;-36
2022/06/10 01:02:05;;;;;;;6.00;1.50;;;19.30;99.90;;;;;;5043889;28;20199;-36
2022/06/10 01:04:35;;;;;;;4.22;1.90;;;19.30;99.90;;;;;;5026557;28;20736;-37
2022/06/10 01:07:03;;;;;;;4.28;1.60;;;19.30;99.90;;;;;;5033415;28;20204;-36
2022/06/10 01:09:36;;;;;;;7.05;1.83;;;19.30;99.90;;;;;;5041006;28;20399;-36
2022/06/10 01:12:22;;;;;;;4.68;1.33;;;19.30;99.90;;;;;;5052686;28;20228;-36
2022/06/10 01:15:18;;;;;;;4.65;1.60;;;19.30;99.90;;;;;;5051956;28;20214;-36
2022/06/10 01:18:21;;;;;;;6.20;1.63;;;19.30;99.90;;;;;;5045500;28;20706;-37
2022/06/10 01:21:03;;;;;;;4.78;1.38;;;19.30;99.90;;;;;;5045538;28;20200;-37
2022/06/10 01:24:10;;;;;;;6.18;1.42;;;19.30;99.90;;;;;;5033533;28;20278;-37
2022/06/10 01:30:12;;;;;;;5.05;1.58;;;19.30;99.90;;;;;;5058124;28;20295;-36
2022/06/10 01:32:41;;;;;;;5.40;2.05;;;19.20;99.90;;;;;;5046778;28;20281;-36
2022/06/10 01:35:22;;;;;;;5.18;1.58;;;19.20;99.90;;;;;;5052228;28;20567;-36
2022/06/10 01:38:05;;;;;;;4.10;1.60;;;19.20;99.90;;;;;;5057398;28;20210;-37
2022/06/10 01:41:02;;;;;;;6.50;1.88;;;19.20;99.90;;;;;;5035279;28;20209;-37
2022/06/10 01:43:38;;;;;;;6.75;1.70;;;19.30;99.90;;;;;;5053178;28;20224;-37
2022/06/10 01:46:20;;;;;;;6.82;1.45;;;19.30;99.90;;;;;;5053319;28;20317;-37
2022/06/10 01:49:08;;;;;;;5.60;1.40;;;19.30;99.90;;;;;;5051144;28;20626;-37
2022/06/10 01:51:38;;;;;;;7.72;1.85;;;19.30;99.90;;;;;;5039275;28;20299;-37
2022/06/10 01:54:20;;;;;;;6.85;1.60;;;19.30;99.90;;;;;;5039010;28;20216;-37
2022/06/10 01:56:51;;;;;;;5.93;1.58;;;19.20;99.90;;;;;;5036858;28;20932;-37
2022/06/10 01:59:37;;;;;;;5.55;1.70;;;19.20;99.90;;;;;;5037603;28;20278;-36
2022/06/10 02:02:11;;;;;;;6.07;1.50;;;19.30;99.90;;;;;;5044253;28;20267;-36
2022/06/10 02:05:07;;;;;;;4.22;1.40;;;19.20;99.90;;;;;;5028850;28;20718;-37
2022/06/10 02:07:46;;;;;;;9.00;1.67;;;19.30;99.90;;;;;;5036423;28;20292;-37
2022/06/10 02:10:37;;;;;;;5.05;1.60;;;19.30;99.90;;;;;;5034930;28;20699;-36
2022/06/10 02:13:16;;;;;;;4.82;1.70;;;19.30;99.90;;;;;;5031048;28;20232;-36
2022/06/10 02:15:52;;;;;;;6.68;1.67;;;19.30;99.90;;;;;;5032090;28;20223;-37
2022/06/10 02:18:25;;;;;;;6.55;2.00;;;19.30;99.90;;;;;;5046022;28;20199;-37
2022/06/10 02:21:11;;;;;;;5.00;1.63;;;19.30;99.90;;;;;;5055703;28;20200;-36
2022/06/10 02:23:47;;;;;;;5.30;1.25;;;19.30;99.90;;;;;;5054357;28;20743;-37
2022/06/10 02:26:17;;;;;;;4.95;1.60;;;19.30;99.90;;;;;;5046998;28;20551;-37
2022/06/10 02:28:52;;;;;;;4.95;1.50;;;19.30;99.90;;;;;;5026708;28;20299;-37
2022/06/10 02:31:25;;;;;;;2.88;1.42;;;19.20;99.90;;;;;;5042212;28;20217;-37
2022/06/10 02:33:54;;;;;;;3.22;1.38;;;19.30;99.90;;;;;;5041579;28;20203;-37
2022/06/10 02:36:44;;;;;;;6.47;1.50;;;19.20;99.90;;;;;;5046556;28;20658;-37
2022/06/10 02:39:18;;;;;;;5.68;2.03;;;19.30;99.90;;;;;;5064199;28;20866;-52
2022/06/10 02:42:18;;;;;;;2.88;1.35;;;19.30;99.90;;;;;;5063506;28;20293;-50
2022/06/10 02:45:16;;;;;;;8.93;1.83;;;19.30;99.90;;;;;;5036433;28;20264;-51
2022/06/10 02:47:47;;;;;;;6.00;1.55;;;19.30;99.90;;;;;;5038498;28;20200;-51
2022/06/10 02:50:16;;;;;;;2.63;1.20;;;19.30;99.90;;;;;;5040258;28;20236;-51
2022/06/10 02:52:48;;;;;;;4.18;1.25;;;19.30;99.90;;;;;;5033671;28;20205;-50
2022/06/10 02:55:22;;;;;;;3.25;1.25;;;19.30;99.90;;;;;;5031203;28;20308;-52
2022/06/10 03:03:54;;;;;;;6.35;1.67;;;19.30;99.90;;;;;;5056592;28;20731;-52
2022/06/10 03:06:27;;;;;;;3.33;1.13;;;19.30;99.90;;;;;;5043855;28;20275;-52
2022/06/10 03:09:18;;;;;;;7.05;1.80;;;19.30;99.90;;;;;;5042654;28;20220;-52
2022/06/10 03:12:09;;;;;;;3.72;1.85;;;19.30;99.90;;;;;;5028029;28;20225;-52
2022/06/10 03:14:56;;;;;;;7.68;1.80;;;19.30;99.90;;;;;;5053694;28;20351;-51
2022/06/10 03:18:01;;;;;;;5.00;1.38;;;19.30;99.90;;;;;;5040932;28;20211;-51
2022/06/10 03:21:12;;;;;;;3.35;1.55;;;19.30;99.90;;;;;;5047433;28;20246;-50
2022/06/10 03:23:45;;;;;;;5.80;1.85;;;19.30;99.90;;;;;;5041848;28;20638;-50
2022/06/10 03:26:40;;;;;;;4.30;1.55;;;19.20;99.90;;;;;;5046995;28;20189;-50
2022/06/10 03:29:19;;;;;;;6.47;1.98;;;19.30;99.90;;;;;;5044586;28;20780;-51
2022/06/10 03:31:55;;;;;;;4.82;1.52;;;19.20;99.90;;;;;;5056130;28;20196;-51
2022/06/10 03:34:31;;;;;;;4.93;1.50;;;19.20;99.90;;;;;;5037776;28;20649;-51
2022/06/10 03:37:06;;;;;;;6.97;1.60;;;19.30;99.90;;;;;;5045890;28;20204;-51
2022/06/10 03:39:39;;;;;;;5.10;1.75;;;19.30;99.90;;;;;;5056189;28;20223;-51
2022/06/10 03:42:10;;;;;;;6.60;2.03;;;19.30;99.90;;;;;;5041355;28;20912;-51
2022/06/10 03:44:39;;;;;;;4.95;1.60;;;19.30;99.90;;;;;;5028169;28;20248;-51
2022/06/10 03:47:10;;;;;;;8.15;1.70;;;19.30;99.90;;;;;;5044119;28;20218;-53
2022/06/10 03:49:48;;;;;;;5.88;1.90;;;19.30;99.90;;;;;;5056871;28;20231;-51
2022/06/10 03:52:31;;;;;;;6.57;1.88;;;19.30;99.90;;;;;;5030639;28;20197;-51
2022/06/10 03:54:59;;;;;;;5.85;1.67;;;19.30;99.90;;;;;;5031260;28;20271;-51
2022/06/10 03:57:28;;;;;;;5.05;1.70;;;19.30;99.90;;;;;;5051569;28;20290;-52
2022/06/10 03:59:58;;;;;;;4.07;1.65;;;19.30;99.90;;;;;;5053743;28;20215;-52
2022/06/10 04:02:30;;;;;;;5.60;1.80;;;19.30;99.90;;;;;;5047449;28;20253;-51
2022/06/10 04:04:57;;;;;;;9.00;1.73;;;19.30;99.90;;;;;;5058092;28;20253;-51
2022/06/10 04:07:24;;;;;;;5.95;2.10;;;19.30;99.90;;;;;;5031753;28;20193;-52
2022/06/10 04:09:52;;;;;;;5.82;1.85;;;19.30;99.90;;;;;;5029874;28;20286;-52
2022/06/10 04:12:25;;;;;;;4.30;1.65;;;19.30;99.90;;;;;;5026519;28;20303;-52
2022/06/10 04:14:55;;;;;;;5.47;2.00;;;19.40;99.90;;;;;;5040077;28;20220;-52
2022/06/10 04:17:27;;;;;;;10.10;1.60;;;19.40;99.90;;;;;;5047436;28;20306;-52
2022/06/10 04:19:56;;;;;;;4.88;1.77;;;19.40;99.90;;;;;;5051794;28;20318;-52
2022/06/10 04:22:24;;;;;;;5.13;1.50;;;19.40;99.90;;;;;;5045631;28;20197;-52
2022/06/10 04:24:53;;;;;;;4.68;1.58;;;19.40;99.90;;;;;;5040395;28;20228;-52
2022/06/10 04:27:22;;;;;;;5.28;1.98;;;19.50;99.90;;;;;;5037981;28;20288;-52
2022/06/10 04:29:49;;;;;;;6.50;1.98;;;19.50;99.90;;;;;;5045302;28;20213;-52
2022/06/10 04:32:16;;;;;;;3.00;1.50;;;19.50;99.90;;;;;;5060423;28;20753;-52
2022/06/10 04:34:44;;;;;;;6.45;1.70;;;19.50;99.90;;;;;;5033073;28;20208;-53
2022/06/10 04:37:11;;;;;;;8.23;1.80;;;19.50;99.90;;;;;;5028148;28;20230;-52
2022/06/10 04:39:38;;;;;;;3.80;1.63;;;19.50;99.90;;;;;;5051083;28;20330;-52
2022/06/10 04:42:06;;;;;;;5.22;1.77;;;19.50;99.90;;;;;;5052016;28;20632;-52
2022/06/10 04:44:35;;;;;;;5.72;1.73;;;19.50;99.90;;;;;;5045690;28;20648;-37
2022/06/10 04:47:08;;;;;;;8.07;2.63;;;19.50;99.90;;;;;;5040272;28;20773;-37
2022/06/10 04:49:39;;;;;;;7.60;1.83;;;19.50;99.90;;;;;;5054761;28;22126;-37
2022/06/10 04:52:06;;;;;;;9.60;2.65;;;19.50;99.90;;;;;;5032533;28;20234;-37
2022/06/10 04:54:38;;;;;;;6.43;1.60;;;19.60;99.90;;;;;;5041607;28;20208;-37
2022/06/10 04:57:06;;;;;;;4.72;1.63;;;19.60;99.90;;;;;;5046138;28;20295;-37
2022/06/10 04:59:36;;;;;;;5.47;1.50;;;19.60;99.90;;;;;;5031155;28;20428;-37
2022/06/10 05:02:08;;;;;;;11.27;2.60;;;19.60;99.90;;;;;;5042602;28;20214;-37
2022/06/10 05:04:35;;;;;;;24.40;4.65;;;19.60;99.90;;;;;;5039018;28;20225;-38
2022/06/10 05:07:05;;;;;;;22.63;4.00;;;19.70;99.90;;;;;;5049968;28;20208;-37
2022/06/10 05:09:34;;;;;;;14.00;3.75;;;19.70;99.90;;;;;;5040701;28;20204;-37
2022/06/10 05:12:01;;;;;;;11.18;2.83;;;19.70;99.90;;;;;;5044164;28;20490;-37
2022/06/10 05:14:34;;;;;;;10.45;2.72;;;19.70;99.90;;;;;;5041747;28;20220;-37
2022/06/10 05:17:03;;;;;;;6.35;1.92;;;19.80;99.90;;;;;;5054462;28;20262;-36
2022/06/10 05:19:33;;;;;;;7.28;2.28;;;19.80;99.90;;;;;;5044571;28;20558;-37
2022/06/10 05:22:00;;;;;;;7.35;1.83;;;19.80;99.90;;;;;;5040213;28;20205;-37
2022/06/10 05:24:32;;;;;;;6.68;1.98;;;19.80;99.90;;;;;;5040723;28;20230;-37
2022/06/10 05:26:59;;;;;;;6.20;1.77;;;19.80;99.90;;;;;;5056034;28;20677;-37
2022/06/10 05:29:27;;;;;;;6.32;1.55;;;19.80;99.90;;;;;;5050787;28;20211;-37
2022/06/10 05:31:54;;;;;;;6.22;1.70;;;19.80;99.90;;;;;;5039722;28;20628;-37
2022/06/10 05:37:07;;;;;;;5.80;1.67;;;19.90;99.90;;;;;;5044869;28;20199;-37
2022/06/10 05:39:37;;;;;;;5.95;1.45;;;19.90;99.90;;;;;;5037045;28;20560;-36
2022/06/10 05:42:05;;;;;;;8.35;2.03;;;19.90;99.90;;;;;;5043488;28;20298;-37
2022/06/10 05:44:34;;;;;;;8.80;1.45;;;19.90;99.90;;;;;;5058205;28;20219;-37
2022/06/10 05:47:07;;;;;;;3.92;1.27;;;19.90;99.90;;;;;;5042716;28;20195;-37
2022/06/10 05:49:42;;;;;;;5.85;1.58;;;20.00;99.90;;;;;;5056850;28;20213;-37
2022/06/10 05:52:13;;;;;;;5.38;1.40;;;19.90;99.90;;;;;;5037664;28;20201;-37
2022/06/10 05:54:44;;;;;;;5.47;1.27;;;20.00;99.90;;;;;;5045509;28;20704;-37
2022/06/10 05:57:14;;;;;;;5.10;1.30;;;20.00;99.90;;;;;;5028278;28;20221;-37
2022/06/10 05:59:51;;;;;;;5.40;1.60;;;20.00;99.90;;;;;;5057797;28;20880;-37
2022/06/10 06:02:22;;;;;;;3.97;1.30;;;20.00;99.90;;;;;;5041506;28;20263;-36
2022/06/10 06:04:52;;;;;;;3.35;1.30;;;20.10;99.90;;;;;;5045359;28;20268;-38
2022/06/10 06:07:27;;;;;;;5.07;1.40;;;20.10;99.90;;;;;;5038044;28;20244;-51
2022/06/10 06:09:57;;;;;;;7.90;1.70;;;20.10;99.90;;;;;;5044248;28;20197;-51
2022/06/10 06:12:25;;;;;;;5.80;1.88;;;20.20;99.90;;;;;;5045172;28;20343;-51
2022/06/10 06:14:52;;;;;;;4.10;1.40;;;20.20;99.90;;;;;;5024220;28;20585;-51
2022/06/10 06:17:20;;;;;;;6.25;1.65;;;20.20;99.90;;;;;;5057832;28;20211;-51
2022/06/10 06:19:52;;;;;;;5.60;1.50;;;20.30;99.90;;;;;;5061923;28;20204;-51
2022/06/10 06:22:22;;;;;;;3.95;1.30;;;20.30;99.90;;;;;;5055550;28;20264;-50
2022/06/10 06:24:49;;;;;;;5.90;1.50;;;20.30;99.90;;;;;;5055815;28;20251;-51
2022/06/10 06:27:19;;;;;;;8.45;1.80;;;20.40;99.90;;;;;;5059671;28;20200;-51
2022/06/10 06:29:51;;;;;;;26.83;4.55;;;20.40;99.90;;;;;;5052656;28;20286;-51
2022/06/10 06:32:20;;;;;;;15.18;3.08;;;20.50;99.90;;;;;;5034393;28;20217;-51
2022/06/10 06:34:52;;;;;;;9.00;2.08;;;20.50;99.90;;;;;;5044219;28;20213;-51
2022/06/10 06:37:20;;;;;;;8.32;2.13;;;20.50;99.90;;;;;;5042635;28;20226;-51
2022/06/10 06:39:47;;;;;;;4.57;1.98;;;20.60;99.90;;;;;;5048673;28;20208;-51
2022/06/10 06:42:17;;;;;;;7.85;2.10;;;20.60;99.90;;;;;;5062985;28;20250;-49
2022/06/10 06:44:45;;;;;;;7.50;1.77;;;20.60;99.90;;;;;;5052556;28;20274;-50
2022/06/10 06:47:40;;;;;;;5.03;1.45;;;20.70;99.90;;;;;;5047037;28;20308;-51
2022/06/10 06:50:09;;;;;;;8.20;1.60;;;20.70;99.90;;;;;;5049319;28;20217;-50
2022/06/10 06:52:39;;;;;;;6.28;1.58;;;20.70;99.90;;;;;;5064230;28;20681;-51
2022/06/10 06:55:10;;;;;;;10.65;2.88;;;20.70;99.90;;;;;;5050198;28;20590;-51
2022/06/10 06:57:37;;;;;;;9.93;2.90;;;20.80;99.90;;;;;;5035866;28;20340;-49
2022/06/10 07:00:08;;;;;;;8.68;2.13;;;20.80;99.90;;;;;;5064630;28;20247;-52
2022/06/10 07:02:37;;;;;;;7.05;2.03;;;20.90;99.90;;;;;;5053660;28;20723;-50
2022/06/10 07:05:05;;;;;;;4.55;1.70;;;20.90;99.90;;;;;;5034222;28;20264;-51
2022/06/10 07:07:38;;;;;;;8.02;2.13;;;21.00;99.90;;;;;;5057120;28;20281;-50
2022/06/10 07:10:05;;;;;;;8.25;1.95;;;21.00;99.90;;;;;;5057013;28;20241;-51
2022/06/10 07:12:34;;;;;;;7.75;1.67;;;21.10;99.90;;;;;;5066134;28;20653;-50
2022/06/10 07:15:01;;;;;;;5.35;2.03;;;21.10;99.90;;;;;;5042441;28;20232;-50
2022/06/10 07:17:29;;;;;;;5.57;1.80;;;21.20;99.90;;;;;;5050250;28;20813;-51
2022/06/10 07:19:58;;;;;;;7.90;2.03;;;21.20;99.90;;;;;;5059731;28;20207;-50
2022/06/10 07:22:26;;;;;;;9.23;2.33;;;21.30;99.90;;;;;;5056046;28;20598;-51
2022/06/10 07:24:54;;;;;;;5.55;1.60;;;21.40;99.90;;;;;;5039982;28;20223;-50
2022/06/10 07:27:22;;;;;;;6.47;2.15;;;21.40;99.90;;;;;;5040539;28;20217;-50
2022/06/10 07:30:01;;;;;;;9.20;2.13;;;21.50;99.90;;;;;;5054990;28;20199;-50
2022/06/10 07:32:31;;;;;;;9.52;2.45;;;21.50;99.90;;;;;;5042488;28;20585;-50
2022/06/10 07:34:58;;;;;;;9.18;2.38;;;21.60;99.90;;;;;;5037047;28;20298;-51
2022/06/10 07:37:25;;;;;;;4.50;1.77;;;21.70;99.90;;;;;;5044627;28;20208;-50
2022/06/10 07:39:53;;;;;;;5.85;2.00;;;21.70;99.90;;;;;;5057482;28;20298;-50
2022/06/10 07:42:24;;;;;;;7.70;2.40;;;21.70;99.90;;;;;;5064925;28;20533;-50
2022/06/10 07:44:54;;;;;;;8.48;2.40;;;21.80;99.90;;;;;;5053610;28;20662;-50
2022/06/10 07:47:21;;;;;;;7.82;2.13;;;21.80;99.90;;;;;;5057142;28;20202;-50
2022/06/10 07:49:51;;;;;;;9.80;3.03;;;21.80;99.90;;;;;;5046975;28;20701;-49
2022/06/10 07:52:25;;;;;;;13.75;3.13;;;21.90;99.90;;;;;;5033900;28;20201;-52
2022/06/10 07:54:55;;;;;;;10.23;2.42;;;21.90;99.90;;;;;;5026677;28;20587;-50
2022/06/10 07:57:27;;;;;;;10.57;2.78;;;22.00;99.90;;;;;;5049507;28;20209;-50
2022/06/10 07:59:54;;;;;;;7.45;2.80;;;22.10;99.90;;;;;;5040442;28;20598;-51
2022/06/10 08:02:23;;;;;;;7.00;2.33;;;22.20;99.90;;;;;;5064953;28;20208;-50
2022/06/10 08:04:50;;;;;;;12.85;2.78;;;22.20;99.90;;;;;;5045849;28;20244;-49
2022/06/10 08:07:20;;;;;;;10.52;2.60;;;22.30;99.90;;;;;;5043557;28;20297;-50
2022/06/10 08:09:47;;;;;;;7.85;2.58;;;22.40;99.90;;;;;;5038807;28;20648;-50
2022/06/10 08:12:17;;;;;;;10.80;3.03;;;22.40;99.90;;;;;;5035481;28;20219;-50
2022/06/10 08:14:44;;;;;;;8.98;2.95;;;22.50;99.90;;;;;;5044492;28;20415;-49
2022/06/10 08:17:12;;;;;;;9.45;2.67;;;22.50;99.90;;;;;;5038936;28;20261;-49
2022/06/10 08:19:42;;;;;;;15.32;3.00;;;22.60;99.90;;;;;;5051028;28;20204;-49
2022/06/10 08:24:58;;;;;;;11.20;3.33;;;22.70;99.90;;;;;;5050804;28;20220;-51
2022/06/10 08:27:30;;;;;;;9.30;3.00;;;22.80;99.90;;;;;;5053889;28;20192;-50
2022/06/10 08:29:59;;;;;;;10.85;3.17;;;22.80;99.90;;;;;;5049500;28;20686;-37
2022/06/10 08:32:27;;;;;;;15.05;4.45;;;22.90;99.90;;;;;;5040343;28;20205;-37
2022/06/10 08:34:56;;;;;;;13.00;4.03;;;23.00;99.90;;;;;;5030508;28;20247;-37
2022/06/10 08:37:26;;;;;;;14.35;3.42;;;23.00;99.90;;;;;;5044526;28;20740;-37
2022/06/10 08:39:54;;;;;;;10.10;2.90;;;23.00;99.90;;;;;;5050808;28;20208;-37
2022/06/10 08:42:41;;;;;;;9.52;2.88;;;23.00;99.90;;;;;;5050811;28;20220;-37
2022/06/10 08:45:29;;;;;;;8.68;2.45;;;23.10;99.90;;;;;;5061712;28;20239;-37
2022/06/10 08:48:33;;;;;;;8.27;2.53;;;23.10;99.90;;;;;;5052267;28;20208;-37
2022/06/10 08:51:07;;;;;;;8.65;2.97;;;23.10;99.90;;;;;;5049326;28;20212;-37
2022/06/10 08:54:04;;;;;;;8.50;3.03;;;23.10;99.90;;;;;;5050531;28;20615;-37
2022/06/10 08:56:40;;;;;;;10.65;2.90;;;23.10;99.90;;;;;;5025766;28;20300;-37
2022/06/10 08:59:30;;;;;;;8.27;2.60;;;23.10;99.90;;;;;;5048824;28;20690;-37
2022/06/10 09:02:08;;;;;;;6.07;2.22;;;23.10;99.90;;;;;;5046494;28;20728;-38
2022/06/10 09:05:06;;;;;;;8.55;2.97;;;23.10;99.90;;;;;;5038398;28;20254;-37
2022/06/10 09:07:49;;;;;;;11.07;3.50;;;23.10;99.90;;;;;;5047420;28;20270;-37
2022/06/10 09:10:38;;;;;;;9.32;3.35;;;23.10;99.90;;;;;;5050160;28;20643;-38
2022/06/10 09:13:24;;;;;;;8.23;3.08;;;23.20;99.90;;;;;;5050634;28;20200;-37
2022/06/10 09:16:25;;;;;;;8.60;3.13;;;23.10;99.90;;;;;;5058291;28;20203;-37
2022/06/10 09:19:16;;;;;;;7.60;2.83;;;23.20;99.90;;;;;;5062416;28;20234;-38
2022/06/10 09:22:10;;;;;;;7.85;3.20;;;23.20;99.90;;;;;;5039783;28;20595;-37
2022/06/10 09:25:01;;;;;;;7.05;2.78;;;23.20;99.90;;;;;;5049073;28;20522;-37
2022/06/10 09:27:34;;;;;;;11.73;3.00;;;23.30;99.90;;;;;;5067839;28;20315;-37
2022/06/10 09:30:05;;;;;;;8.73;3.50;;;23.30;99.90;;;;;;5069030;28;20572;-38
2022/06/10 09:32:52;;;;;;;8.75;3.47;;;23.30;99.90;;;;;;5045726;28;20670;-37
2022/06/10 09:35:53;;;;;;;10.68;3.15;;;23.40;99.90;;;;;;5050121;28;20207;-37
2022/06/10 09:38:45;;;;;;;15.35;4.43;;;23.40;99.90;;;;;;5047808;28;20250;-37
2022/06/10 09:41:26;;;;;;;12.45;3.90;;;23.50;99.90;;;;;;5036271;28;20204;-37
2022/06/10 09:44:12;;;;;;;13.65;4.03;;;23.40;99.90;;;;;;5043280;28;20582;-37
2022/06/10 09:47:10;;;;;;;9.02;3.60;;;23.40;99.90;;;;;;5045641;28;20278;-37
2022/06/10 09:49:56;;;;;;;11.27;4.68;;;23.40;99.90;;;;;;5057011;28;20229;-37
2022/06/10 09:52:42;;;;;;;9.95;4.13;;;23.40;99.90;;;;;;5064523;28;20197;-36
2022/06/10 09:55:39;;;;;;;8.93;3.60;;;23.40;99.90;;;;;;5040793;28;20232;-36
2022/06/10 09:58:26;;;;;;;8.95;3.70;;;23.50;99.90;;;;;;5036455;28;20200;-36
2022/06/10 10:01:13;;;;;;;12.38;4.30;;;23.40;99.90;;;;;;5068722;28;20607;-37
2022/06/10 10:04:01;;;;;;;11.18;4.47;;;23.50;99.90;;;;;;5049253;28;20670;-37
2022/06/10 10:06:37;;;;;;;13.68;4.00;;;23.50;99.90;;;;;;5042097;28;20236;-37
2022/06/10 10:09:16;;;;;;;8.20;4.00;;;23.50;99.90;;;;;;5050899;28;20598;-37
2022/06/10 10:12:02;;;;;;;7.50;3.60;;;23.50;99.90;;;;;;5033087;28;20237;-37
2022/06/10 10:15:03;;;;;;;8.77;3.28;;;23.60;99.90;;;;;;5039070;28;20199;-36
2022/06/10 10:17:44;;;;;;;7.97;3.30;;;23.60;99.90;;;;;;5060059;28;20278;-36
2022/06/10 10:20:21;;;;;;;9.68;3.35;;;23.70;99.90;;;;;;5068781;28;20234;-38
2022/06/10 10:23:15;;;;;;;7.85;3.20;;;23.60;99.90;;;;;;5059655;28;20191;-38
2022/06/10 10:25:46;;;;;;;10.70;3.28;;;23.70;99.90;;;;;;5067161;28;20580;-38
2022/06/10 10:28:29;;;;;;;8.68;3.10;;;23.80;99.90;;;;;;5052917;28;20294;-38
2022/06/10 10:31:26;;;;;;;9.45;2.90;;;23.80;99.90;;;;;;5052590;28;20201;-38
2022/06/10 10:33:58;;;;;;;8.45;3.05;;;23.80;99.90;;;;;;5050429;28;20196;-37
2022/06/10 10:36:28;;;;;;;6.00;2.30;;;23.80;99.90;;;;;;5043900;28;20565;-38
2022/06/10 10:38:59;;;;;;;7.93;2.70;;;23.90;99.90;;;;;;5048367;28;20220;-38
2022/06/10 10:41:34;;;;;;;7.60;2.40;;;23.90;99.90;;;;;;5045445;28;20203;-38
2022/06/10 10:44:40;;;;;;;9.43;2.40;;;23.90;99.90;;;;;;5058968;28;20247;-38
2022/06/10 10:47:10;;;;;;;5.38;2.28;;;24.00;99.90;;;;;;5044125;28;20655;-38
2022/06/10 10:49:48;;;;;;;8.80;2.78;;;24.00;99.90;;;;;;5063575;28;20689;-38
2022/06/10 10:52:27;;;;;;;14.55;3.30;;;24.00;99.90;;;;;;5039882;28;20217;-38
2022/06/10 10:54:59;;;;;;;8.13;2.60;;;24.10;99.90;;;;;;5046021;28;20564;-38
2022/06/10 10:57:35;;;;;;;14.93;3.10;;;24.10;99.90;;;;;;5054126;28;20208;-38
2022/06/10 11:00:30;;;;;;;12.15;3.25;;;24.10;99.90;;;;;;5062965;28;20731;-38
2022/06/10 11:03:01;;;;;;;10.27;2.63;;;24.20;99.90;;;;;;5049767;28;20767;-38
2022/06/10 11:05:46;;;;;;;9.32;2.65;;;24.20;99.90;;;;;;5035575;28;20266;-38
2022/06/10 11:08:31;;;;;;;8.88;2.53;;;24.30;99.90;;;;;;5050536;28;20298;-38
2022/06/10 11:11:07;;;;;;;6.85;1.90;;;24.30;99.90;;;;;;5048953;28;20213;-38
2022/06/10 11:13:46;;;;;;;9.50;2.72;;;24.40;99.90;;;;;;5059672;28;20212;-47
2022/06/10 11:16:31;;;;;;;9.82;2.67;;;24.40;99.90;;;;;;5044144;28;20204;-38
2022/06/10 11:19:16;;;;;;;9.25;2.20;;;24.50;99.90;;;;;;5045855;28;20233;-37
2022/06/10 11:22:15;;;;;;;11.32;2.05;;;24.50;99.90;;;;;;5053658;28;20754;-37
2022/06/10 11:25:03;;;;;;;5.28;2.30;;;24.60;99.90;;;;;;5050109;28;20208;-37
2022/06/10 11:27:35;;;;;;;5.55;2.10;;;24.60;99.90;;;;;;5055406;28;20235;-37
2022/06/10 11:30:13;;;;;;;8.18;2.63;;;24.70;99.90;;;;;;5043499;28;20799;-36
2022/06/10 11:32:51;;;;;;;6.35;2.00;;;24.70;99.90;;;;;;5063745;28;20646;-36
2022/06/10 11:35:57;;;;;;;11.15;2.50;;;24.70;99.90;;;;;;5042374;28;20252;-38
2022/06/10 11:38:33;;;;;;;10.45;2.63;;;24.80;99.90;;;;;;5060525;28;20751;-37
2022/06/10 11:41:29;;;;;;;5.03;1.70;;;24.70;99.90;;;;;;5037216;28;20266;-37
2022/06/10 11:44:05;;;;;;;9.05;2.47;;;24.80;99.90;;;;;;5058003;28;20629;-50
2022/06/10 11:46:36;;;;;;;6.28;1.67;;;24.80;99.90;;;;;;5059154;28;20272;-49
2022/06/10 11:49:27;;;;;;;7.85;2.10;;;24.90;99.90;;;;;;5067340;28;20211;-50
2022/06/10 11:52:03;;;;;;;5.40;2.03;;;24.90;99.90;;;;;;5048612;28;20756;-50
2022/06/10 11:55:03;;;;;;;9.27;2.53;;;25.00;99.90;;;;;;5056491;28;20313;-50
2022/06/10 12:01:05;;;;;;;6.07;1.70;;;25.10;99.90;;;;;;5055003;28;20200;-50
2022/06/10 12:03:55;;;;;;;5.65;1.75;;;25.10;99.90;;;;;;5053425;28;20192;-50
2022/06/10 12:06:41;;;;;;;6.32;1.90;;;25.10;99.90;;;;;;5056798;28;20245;-50
2022/06/10 12:09:19;;;;;;;5.30;1.60;;;25.20;99.90;;;;;;5059424;28;20197;-50
2022/06/10 12:11:52;;;;;;;4.50;2.25;;;25.30;99.90;;;;;;5040303;28;20241;-50
2022/06/10 12:14:40;;;;;;;8.23;2.22;;;25.30;99.90;;;;;;5063198;28;20750;-49
2022/06/10 12:17:16;;;;;;;8.50;2.50;;;25.40;99.90;;;;;;5065444;28;20207;-48
2022/06/10 12:19:55;;;;;;;6.22;1.77;;;25.40;99.90;;;;;;5060132;28;20208;-50
2022/06/10 12:22:26;;;;;;;8.02;1.83;;;25.50;99.90;;;;;;5059382;28;20312;-37
2022/06/10 12:24:56;;;;;;;11.63;2.20;;;25.50;99.90;;;;;;5041986;28;20259;-37
2022/06/10 12:27:38;;;;;;;6.75;1.95;;;25.50;99.90;;;;;;5042531;28;20266;-37
2022/06/10 12:30:14;;;;;;;8.93;2.35;;;25.60;99.90;;;;;;5032206;28;20710;-37
2022/06/10 12:32:56;;;;;;;7.55;2.30;;;25.60;99.90;;;;;;5046905;28;20216;-38
2022/06/10 12:35:34;;;;;;;9.95;2.97;;;25.60;99.90;;;;;;5044999;28;20674;-37
2022/06/10 12:38:10;;;;;;;12.10;1.80;;;25.60;99.90;;;;;;5065267;28;20207;-38
2022/06/10 12:40:56;;;;;;;4.20;1.35;;;25.60;99.90;;;;;;5053786;28;20215;-37
2022/06/10 12:43:35;;;;;;;10.60;1.80;;;25.70;99.90;;;;;;5048857;28;20579;-37
2022/06/10 12:46:06;;;;;;;6.28;1.65;;;25.70;99.90;;;;;;5050418;28;20303;-37
2022/06/10 12:48:43;;;;;;;7.53;2.00;;;25.80;99.90;;;;;;5051431;28;20237;-38
2022/06/10 12:51:26;;;;;;;5.60;1.90;;;25.90;99.90;;;;;;5038992;28;20212;-37
2022/06/10 12:54:31;;;;;;;4.50;1.85;;;26.00;99.90;;;;;;5036934;28;20205;-37
2022/06/10 12:57:27;;;;;;;6.40;1.25;;;26.10;99.90;;;;;;5042048;28;20706;-37
2022/06/10 13:00:19;;;;;;;4.35;1.52;;;26.20;99.90;;;;;;5037166;28;20236;-37
2022/06/10 13:02:49;;;;;;;6.18;1.70;;;26.20;99.90;;;;;;5054679;28;20610;-37
2022/06/10 13:05:26;;;;;;;7.38;1.98;;;26.20;99.90;;;;;;5044545;28;20286;-37
2022/06/10 13:07:56;;;;;;;6.78;1.90;;;26.30;99.90;;;;;;5040077;28;20216;-37
2022/06/10 13:10:34;;;;;;;4.85;1.65;;;26.40;99.90;;;;;;5041685;28;20192;-37
2022/06/10 13:13:14;;;;;;;4.00;1.70;;;26.40;99.90;;;;;;5058823;28;20287;-37
2022/06/10 13:15:53;;;;;;;5.90;1.88;;;26.50;99.90;;;;;;5055703;28;20207;-37
2022/06/10 13:18:32;;;;;;;6.50;1.70;;;26.50;99.90;;;;;;5044993;28;20749;-37
2022/06/10 13:21:15;;;;;;;6.28;1.70;;;26.50;99.90;;;;;;5040905;28;20200;-37
2022/06/10 13:24:09;;;;;;;4.53;1.45;;;26.60;99.90;;;;;;5040912;28;20262;-38
2022/06/10 13:26:36;;;;;;;8.80;1.60;;;26.60;99.90;;;;;;5038083;28;20213;-38
2022/06/10 13:29:15;;;;;;;5.38;1.73;;;26.70;99.90;;;;;;5046475;28;20208;-38
2022/06/10 13:31:52;;;;;;;4.85;1.52;;;26.70;99.90;;;;;;5066774;28;20303;-38
2022/06/10 13:34:26;;;;;;;7.25;2.20;;;26.70;99.90;;;;;;5055479;28;20208;-37
2022/06/10 13:36:58;;;;;;;7.93;1.88;;;26.70;99.90;;;;;;5042879;28;20573;-37
2022/06/10 13:39:35;;;;;;;8.55;2.08;;;26.70;99.90;;;;;;5047575;28;20238;-37
2022/06/10 13:42:04;;;;;;;3.50;1.40;;;26.70;99.90;;;;;;5065253;28;20199;-37
2022/06/10 13:44:43;;;;;;;5.97;2.20;;;26.70;99.90;;;;;;5055157;28;20207;-40
2022/06/10 13:47:29;;;;;;;8.73;1.80;;;26.70;99.90;;;;;;5059500;28;20223;-38
2022/06/10 13:53:05;;;;;;;5.30;1.20;;;26.70;99.90;;;;;;5061712;28;20292;-38
2022/06/10 13:55:35;;;;;;;7.40;2.10;;;26.80;99.90;;;;;;5039198;28;20633;-38